Time,TemperatureF,DewpointF,PressureIn,WindDirection,WindDirectionDegrees,WindSpeedMPH,WindSpeedGustMPH,Humidity,HourlyPrecipIn,Conditions,Clouds,dailyrainin,SoftwareType,DateUTC
2014-12-21 00:01:00,50.7,47.0,29.70,SSE,152,6.0,12.0,87,0.01,,,0.00,weatherlink.com 1.10,2014-12-21 08:01:00,
2014-12-21 00:17:00,50.8,47.0,29.69,SSE,158,12.0,13.0,86,0.01,,,0.00,weatherlink.com 1.10,2014-12-21 08:17:00,
2014-12-21 00:32:00,51.5,47.0,29.69,SE,124,1.0,19.0,85,0.01,,,0.00,weatherlink.com 1.10,2014-12-21 08:32:00,
2014-12-21 00:47:00,51.2,47.0,29.67,SE,140,10.0,16.0,86,0.01,,,0.01,weatherlink.com 1.10,2014-12-21 08:47:00,
2014-12-21 01:02:00,51.3,47.0,29.68,SSE,150,12.0,16.0,86,0.01,,,0.01,weatherlink.com 1.10,2014-12-21 09:02:00,
2014-12-21 01:17:00,51.4,47.0,29.70,SSE,154,8.0,21.0,86,0.02,,,0.02,weatherlink.com 1.10,2014-12-21 09:17:00,
2014-12-21 01:32:00,52.4,47.0,29.71,SE,142,7.0,18.0,83,0.02,,,0.02,weatherlink.com 1.10,2014-12-21 09:32:00,
2014-12-21 01:48:00,52.0,48.0,29.74,South,179,0.0,11.0,85,0.02,,,0.03,weatherlink.com 1.10,2014-12-21 09:48:00,
2014-12-21 02:03:00,51.7,48.0,29.76,South,171,6.0,9.0,86,0.04,,,0.05,weatherlink.com 1.10,2014-12-21 10:03:00,
2014-12-21 02:18:00,51.4,48.0,29.75,SSE,156,4.0,9.0,87,0.03,,,0.05,weatherlink.com 1.10,2014-12-21 10:18:00,
2014-12-21 02:32:00,50.8,47.0,29.77,SSE,154,5.0,9.0,88,0.04,,,0.06,weatherlink.com 1.10,2014-12-21 10:32:00,
2014-12-21 02:47:00,50.7,47.0,29.77,SSE,165,5.0,9.0,88,0.04,,,0.07,weatherlink.com 1.10,2014-12-21 10:47:00,
2014-12-21 03:03:00,50.7,47.0,29.78,SSE,156,0.0,7.0,88,0.02,,,0.07,weatherlink.com 1.10,2014-12-21 11:03:00,
2014-12-21 03:17:00,50.1,47.0,29.78,SSE,155,0.0,8.0,89,0.02,,,0.07,weatherlink.com 1.10,2014-12-21 11:17:00,
2014-12-21 03:32:00,49.9,47.0,29.78,SSE,155,0.0,0.0,89,0.01,,,0.07,weatherlink.com 1.10,2014-12-21 11:32:00,
2014-12-21 03:48:00,50.0,47.0,29.78,South,175,0.0,0.0,89,0.01,,,0.08,weatherlink.com 1.10,2014-12-21 11:48:00,
2014-12-21 04:05:00,49.9,47.0,29.78,South,175,0.0,1.0,88,0.01,,,0.08,weatherlink.com 1.10,2014-12-21 12:05:00,
2014-12-21 04:18:00,50.1,46.0,29.79,SSW,211,5.0,11.0,86,0.02,,,0.09,weatherlink.com 1.10,2014-12-21 12:18:00,
2014-12-21 04:33:00,52.0,46.0,29.81,SW,225,12.0,21.0,79,0.02,,,0.09,weatherlink.com 1.10,2014-12-21 12:33:00,
2014-12-21 04:48:00,52.1,44.0,29.82,SSW,213,15.0,25.0,74,0.01,,,0.09,weatherlink.com 1.10,2014-12-21 12:48:00,
2014-12-21 05:04:00,51.8,43.0,29.83,WSW,243,11.0,17.0,73,0.01,,,0.09,weatherlink.com 1.10,2014-12-21 13:04:00,
2014-12-21 05:18:00,51.2,43.0,29.83,WSW,241,6.0,14.0,74,0.00,,,0.09,weatherlink.com 1.10,2014-12-21 13:18:00,
2014-12-21 05:34:00,51.2,43.0,29.84,SW,234,7.0,16.0,74,0.00,,,0.09,weatherlink.com 1.10,2014-12-21 13:34:00,
2014-12-21 05:48:00,50.2,43.0,29.85,SSW,211,12.0,16.0,76,0.00,,,0.09,weatherlink.com 1.10,2014-12-21 13:48:00,
2014-12-21 06:04:00,49.4,43.0,29.86,West,266,11.0,15.0,79,0.00,,,0.09,weatherlink.com 1.10,2014-12-21 14:04:00,
2014-12-21 06:18:00,49.2,44.0,29.87,West,259,2.0,11.0,81,0.00,,,0.09,weatherlink.com 1.10,2014-12-21 14:18:00,
2014-12-21 06:34:00,48.2,44.0,29.89,WNW,287,0.0,7.0,84,0.00,,,0.09,weatherlink.com 1.10,2014-12-21 14:34:00,
2014-12-21 06:48:00,46.8,42.0,29.91,WNW,294,3.0,7.0,84,0.01,,,0.10,weatherlink.com 1.10,2014-12-21 14:48:00,
2014-12-21 07:04:00,46.2,42.0,29.91,NW,304,0.0,4.0,85,0.01,,,0.10,weatherlink.com 1.10,2014-12-21 15:04:00,